Time;durP1;ratioP1;P1;durP2;ratioP2;P2;SDS_P1;SDS_P2;PMS_P1;PMS_P2;Temp;Humidity;BMP_temperature;BMP_pressure;BME280_temperature;BME280_humidity;BME280_pressure;Samples;Min_cycle;Max_cycle;Signal;HPM_P1;HPM_P2
2022/08/28 00:01:04;;;;;;;;;2.00;2.00;;;;;;;;5022835;28;63037;-75
2022/08/28 00:03:31;;;;;;;;;3.25;2.25;;;;;;;;5022698;28;62031;-74
2022/08/28 00:05:56;;;;;;;;;3.75;2.25;;;;;;;;5022840;28;61962;-74
2022/08/28 00:08:21;;;;;;;;;5.00;3.75;;;;;;;;5022536;28;62270;-75
2022/08/28 00:10:47;;;;;;;;;3.25;2.75;;;;;;;;5022027;28;65132;-74
2022/08/28 00:13:17;;;;;;;;;3.00;2.00;;;;;;;;5023795;28;61865;-74
2022/08/28 00:15:43;;;;;;;;;2.50;2.50;;;;;;;;5022489;28;61752;-74
2022/08/28 00:18:08;;;;;;;;;3.75;3.75;;;;;;;;5022373;28;61747;-74
2022/08/28 00:20:33;;;;;;;;;4.00;3.00;;;;;;;;5021641;28;63543;-75
2022/08/28 00:22:59;;;;;;;;;4.50;3.00;;;;;;;;5022214;28;61780;-75
2022/08/28 00:25:25;;;;;;;;;5.75;3.25;;;;;;;;5023592;28;62352;-74
2022/08/28 00:27:51;;;;;;;;;3.75;2.50;;;;;;;;5022281;28;61890;-75
2022/08/28 00:30:37;;;;;;;;;3.50;3.50;;;;;;;;5022820;28;61864;-74
2022/08/28 00:33:06;;;;;;;;;9.00;4.25;;;;;;;;5023201;28;61818;-74
2022/08/28 00:35:32;;;;;;;;;5.25;2.75;;;;;;;;5021971;28;62119;-75
2022/08/28 00:37:58;;;;;;;;;3.50;3.00;;;;;;;;5022256;28;62117;-74
2022/08/28 00:40:24;;;;;;;;;4.00;2.50;;;;;;;;5021588;28;63666;-74
2022/08/28 00:42:50;;;;;;;;;3.00;3.00;;;;;;;;5021974;28;61923;-74
2022/08/28 00:45:16;;;;;;;;;2.75;2.50;;;;;;;;5021867;28;61818;-74
2022/08/28 00:47:41;;;;;;;;;1.50;1.50;;;;;;;;5023524;28;61878;-75
2022/08/28 00:50:09;;;;;;;;;3.00;3.00;;;;;;;;5022379;28;61757;-74
2022/08/28 00:52:34;;;;;;;;;3.00;2.75;;;;;;;;5023263;28;61740;-74
2022/08/28 00:55:01;;;;;;;;;3.25;3.00;;;;;;;;5023017;28;61872;-74
2022/08/28 00:57:29;;;;;;;;;3.00;3.00;;;;;;;;5021847;28;61892;-74
2022/08/28 00:59:54;;;;;;;;;3.25;3.25;;;;;;;;5022387;28;61912;-74
2022/08/28 01:02:20;;;;;;;;;3.00;2.50;;;;;;;;5023048;28;61874;-74
2022/08/28 01:04:46;;;;;;;;;2.00;2.00;;;;;;;;5021686;28;61751;-75
2022/08/28 01:07:13;;;;;;;;;3.67;3.67;;;;;;;;5022143;28;62175;-75
2022/08/28 01:09:42;;;;;;;;;3.00;2.00;;;;;;;;5020813;28;63846;-74
2022/08/28 01:12:09;;;;;;;;;5.25;3.00;;;;;;;;5020788;28;61827;-75
2022/08/28 01:14:36;;;;;;;;;2.75;2.50;;;;;;;;5022604;28;61918;-74
2022/08/28 01:17:02;;;;;;;;;2.50;2.00;;;;;;;;5021861;28;62108;-74
2022/08/28 01:19:30;;;;;;;;;4.00;4.00;;;;;;;;5020851;28;63795;-74
2022/08/28 01:22:01;;;;;;;;;5.50;3.00;;;;;;;;5021182;28;61649;-75
2022/08/28 01:24:27;;;;;;;;;4.00;2.75;;;;;;;;5022482;28;62166;-74
2022/08/28 01:26:53;;;;;;;;;2.25;2.25;;;;;;;;5022155;28;62099;-75
2022/08/28 01:29:19;;;;;;;;;2.00;2.00;;;;;;;;5022046;28;62632;-74
2022/08/28 01:31:46;;;;;;;;;3.25;2.00;;;;;;;;5021409;28;61928;-75
2022/08/28 01:34:11;;;;;;;;;2.75;1.50;;;;;;;;5022512;28;61827;-74
2022/08/28 01:36:37;;;;;;;;;4.50;2.00;;;;;;;;5021252;28;61902;-74
2022/08/28 01:39:07;;;;;;;;;3.00;3.00;;;;;;;;5022328;28;62877;-74
2022/08/28 01:41:33;;;;;;;;;2.25;2.00;;;;;;;;5022152;28;61963;-74
2022/08/28 01:43:58;;;;;;;;;4.75;4.00;;;;;;;;5022085;28;61804;-74
2022/08/28 01:46:24;;;;;;;;;5.75;4.50;;;;;;;;5022893;28;62037;-74
2022/08/28 01:48:49;;;;;;;;;5.75;4.25;;;;;;;;5021562;28;61901;-75
2022/08/28 01:51:14;;;;;;;;;3.75;3.75;;;;;;;;5022449;28;61711;-74
2022/08/28 01:53:40;;;;;;;;;5.25;3.25;;;;;;;;5021000;28;62160;-74
2022/08/28 01:56:08;;;;;;;;;2.75;2.75;;;;;;;;5022556;28;61801;-74
2022/08/28 01:58:34;;;;;;;;;4.75;4.75;;;;;;;;5020328;28;63217;-74
2022/08/28 02:01:00;;;;;;;;;4.25;3.75;;;;;;;;5020726;28;61947;-75
2022/08/28 02:03:25;;;;;;;;;7.25;3.75;;;;;;;;5021046;28;62460;-74
2022/08/28 02:05:51;;;;;;;;;4.75;3.50;;;;;;;;5022500;28;61861;-74
2022/08/28 02:08:17;;;;;;;;;7.00;4.00;;;;;;;;5021664;28;61813;-74
2022/08/28 02:10:42;;;;;;;;;5.25;3.00;;;;;;;;5022046;28;61846;-74
2022/08/28 02:13:09;;;;;;;;;4.00;4.00;;;;;;;;5020644;28;61814;-75
2022/08/28 02:15:35;;;;;;;;;3.00;3.00;;;;;;;;5021137;28;61861;-74
2022/08/28 02:18:00;;;;;;;;;4.25;3.00;;;;;;;;5020216;28;62541;-74
2022/08/28 02:20:27;;;;;;;;;4.75;3.00;;;;;;;;5020625;28;61826;-75
2022/08/28 02:22:54;;;;;;;;;3.25;2.75;;;;;;;;5021911;28;62120;-74
2022/08/28 02:25:19;;;;;;;;;3.75;3.75;;;;;;;;5025134;28;61806;-74
2022/08/28 02:27:45;;;;;;;;;2.00;2.00;;;;;;;;5024676;28;62874;-75
2022/08/28 02:30:12;;;;;;;;;5.00;4.00;;;;;;;;5025439;28;61754;-74
2022/08/28 02:32:37;;;;;;;;;6.50;4.00;;;;;;;;5025634;28;61819;-74
2022/08/28 02:35:03;;;;;;;;;3.00;2.00;;;;;;;;5024166;28;61779;-74
2022/08/28 02:37:28;;;;;;;;;4.00;3.00;;;;;;;;5024951;28;63195;-75
2022/08/28 02:39:55;;;;;;;;;6.25;4.00;;;;;;;;5024970;28;61859;-74
2022/08/28 02:42:20;;;;;;;;;3.50;2.00;;;;;;;;5025052;28;61928;-74
2022/08/28 02:44:45;;;;;;;;;4.25;3.00;;;;;;;;5023981;28;61718;-74
2022/08/28 02:47:11;;;;;;;;;1.75;1.75;;;;;;;;5024665;28;61876;-75
2022/08/28 02:49:36;;;;;;;;;2.75;2.00;;;;;;;;5025018;28;61779;-74
2022/08/28 02:52:02;;;;;;;;;5.00;3.00;;;;;;;;5025163;28;61696;-75
2022/08/28 02:54:27;;;;;;;;;4.00;3.25;;;;;;;;5024875;28;61813;-74
2022/08/28 02:56:53;;;;;;;;;3.00;3.00;;;;;;;;5024201;28;62126;-75
2022/08/28 02:59:18;;;;;;;;;5.25;5.25;;;;;;;;5024911;28;61722;-74
2022/08/28 03:01:43;;;;;;;;;7.75;5.25;;;;;;;;5025005;28;61672;-74
2022/08/28 03:04:09;;;;;;;;;14.75;13.50;;;;;;;;5025088;28;61680;-74
2022/08/28 03:06:34;;;;;;;;;23.75;14.50;;;;;;;;5023063;28;63825;-74
2022/08/28 03:08:59;;;;;;;;;20.25;14.75;;;;;;;;5023084;28;61999;-74
2022/08/28 03:11:25;;;;;;;;;18.00;15.75;;;;;;;;5023657;28;61815;-74
2022/08/28 03:13:51;;;;;;;;;22.00;16.00;;;;;;;;5024879;28;62208;-74
2022/08/28 03:16:16;;;;;;;;;13.50;11.00;;;;;;;;5022729;28;63425;-74
2022/08/28 03:18:41;;;;;;;;;16.75;11.25;;;;;;;;5024802;28;61931;-74
2022/08/28 03:21:07;;;;;;;;;10.50;9.50;;;;;;;;5023182;28;61909;-75
2022/08/28 03:23:33;;;;;;;;;13.50;11.00;;;;;;;;5024621;28;61709;-74
2022/08/28 03:26:05;;;;;;;;;8.00;5.25;;;;;;;;5023783;28;61838;-74
2022/08/28 03:28:33;;;;;;;;;7.00;6.00;;;;;;;;5024215;28;62163;-75
2022/08/28 03:30:58;;;;;;;;;8.50;6.75;;;;;;;;5023527;28;61855;-74
2022/08/28 03:33:24;;;;;;;;;6.00;6.00;;;;;;;;5023021;28;62012;-74
2022/08/28 03:35:49;;;;;;;;;10.00;6.25;;;;;;;;5023984;28;62029;-74
2022/08/28 03:38:15;;;;;;;;;6.00;6.00;;;;;;;;5022831;28;61660;-74
2022/08/28 03:40:42;;;;;;;;;6.00;5.00;;;;;;;;5023031;28;61818;-74
2022/08/28 03:43:12;;;;;;;;;5.75;5.50;;;;;;;;5024225;28;61913;-74
2022/08/28 03:45:38;;;;;;;;;5.00;3.75;;;;;;;;5023803;28;61905;-74
2022/08/28 03:48:03;;;;;;;;;6.50;3.50;;;;;;;;5024152;28;61762;-74
2022/08/28 03:50:28;;;;;;;;;7.50;4.50;;;;;;;;5024187;28;61845;-74
2022/08/28 03:52:54;;;;;;;;;5.50;5.50;;;;;;;;5022933;28;62015;-74
2022/08/28 03:55:21;;;;;;;;;5.00;5.00;;;;;;;;5021674;28;64933;-74
2022/08/28 03:57:46;;;;;;;;;3.50;3.50;;;;;;;;5024045;28;61876;-74
2022/08/28 04:00:12;;;;;;;;;3.25;2.25;;;;;;;;5022811;28;62309;-74
2022/08/28 04:02:38;;;;;;;;;3.25;3.00;;;;;;;;5024231;28;61847;-74
2022/08/28 04:05:04;;;;;;;;;4.25;2.75;;;;;;;;5023429;28;63104;-74
2022/08/28 04:07:29;;;;;;;;;6.50;5.25;;;;;;;;5023690;28;61746;-75
2022/08/28 04:09:54;;;;;;;;;4.75;4.50;;;;;;;;5022673;28;61864;-74
2022/08/28 04:12:20;;;;;;;;;3.25;3.25;;;;;;;;5023854;28;61790;-75
2022/08/28 04:14:45;;;;;;;;;3.00;2.75;;;;;;;;5021693;28;63640;-74
2022/08/28 04:17:10;;;;;;;;;4.00;4.00;;;;;;;;5023968;28;61727;-74
2022/08/28 04:19:36;;;;;;;;;4.00;3.50;;;;;;;;5023696;28;61736;-74
2022/08/28 04:22:02;;;;;;;;;4.00;4.00;;;;;;;;5022508;28;61722;-74
2022/08/28 04:24:27;;;;;;;;;4.75;4.00;;;;;;;;5021400;28;63840;-74
2022/08/28 04:26:52;;;;;;;;;2.00;2.00;;;;;;;;5023396;28;61771;-74
2022/08/28 04:29:18;;;;;;;;;4.75;3.75;;;;;;;;5023451;28;61871;-75
2022/08/28 04:31:43;;;;;;;;;10.00;4.00;;;;;;;;5022560;28;62299;-74
2022/08/28 04:34:09;;;;;;;;;5.75;4.25;;;;;;;;5021353;28;64983;-74
2022/08/28 04:36:35;;;;;;;;;4.75;4.75;;;;;;;;5023442;28;62157;-74
2022/08/28 04:39:01;;;;;;;;;5.00;3.75;;;;;;;;5023273;28;61695;-75
2022/08/28 04:41:27;;;;;;;;;4.50;4.50;;;;;;;;5023650;28;61687;-74
2022/08/28 04:43:55;;;;;;;;;3.00;3.00;;;;;;;;5022516;28;62038;-74
2022/08/28 04:46:20;;;;;;;;;5.00;3.50;;;;;;;;5022708;28;61847;-75
2022/08/28 04:48:45;;;;;;;;;7.00;4.00;;;;;;;;5023189;28;61934;-74
2022/08/28 04:51:12;;;;;;;;;3.00;3.00;;;;;;;;5022062;28;61954;-74
2022/08/28 04:53:38;;;;;;;;;3.00;3.00;;;;;;;;5022452;28;61789;-75
2022/08/28 04:56:04;;;;;;;;;4.25;3.25;;;;;;;;5022863;28;62057;-74
2022/08/28 04:58:32;;;;;;;;;2.25;2.25;;;;;;;;5021848;28;61946;-74
2022/08/28 05:00:58;;;;;;;;;4.00;2.75;;;;;;;;5022124;28;61799;-74
2022/08/28 05:03:23;;;;;;;;;5.00;3.00;;;;;;;;5022309;28;62017;-74
2022/08/28 05:05:50;;;;;;;;;2.25;2.25;;;;;;;;5023035;28;61813;-75
2022/08/28 05:08:17;;;;;;;;;4.00;3.25;;;;;;;;5023357;28;61971;-75
2022/08/28 05:10:42;;;;;;;;;6.00;3.50;;;;;;;;5023102;28;61823;-75
2022/08/28 05:13:10;;;;;;;;;4.00;4.00;;;;;;;;5020892;28;63870;-74
2022/08/28 05:15:38;;;;;;;;;3.00;3.00;;;;;;;;5022925;28;62073;-75
2022/08/28 05:18:04;;;;;;;;;2.75;2.00;;;;;;;;5022843;28;61774;-75
2022/08/28 05:20:33;;;;;;;;;2.50;2.00;;;;;;;;5022652;28;61780;-75
2022/08/28 05:22:58;;;;;;;;;2.25;2.00;;;;;;;;5022288;28;62133;-75
2022/08/28 05:25:23;;;;;;;;;4.00;3.75;;;;;;;;5021015;28;61800;-74
2022/08/28 05:27:50;;;;;;;;;4.00;3.25;;;;;;;;5021477;28;61880;-75
2022/08/28 05:30:15;;;;;;;;;4.25;3.00;;;;;;;;5021777;28;62151;-75
2022/08/28 05:32:41;;;;;;;;;3.00;3.00;;;;;;;;5020621;28;64605;-75
2022/08/28 05:35:06;;;;;;;;;3.75;2.75;;;;;;;;5021226;28;61956;-75
2022/08/28 05:37:31;;;;;;;;;4.75;3.75;;;;;;;;5021315;28;62464;-75
2022/08/28 05:39:56;;;;;;;;;4.75;4.00;;;;;;;;5022855;28;61685;-74
2022/08/28 05:42:22;;;;;;;;;3.00;3.00;;;;;;;;5020455;28;63887;-75
2022/08/28 05:44:47;;;;;;;;;3.00;3.00;;;;;;;;5021033;28;61866;-75
2022/08/28 05:47:12;;;;;;;;;4.50;2.75;;;;;;;;5021406;28;61848;-74
2022/08/28 05:49:39;;;;;;;;;3.75;3.25;;;;;;;;5020937;28;62177;-75
2022/08/28 05:52:04;;;;;;;;;4.50;3.00;;;;;;;;5021923;28;61840;-74
2022/08/28 05:54:30;;;;;;;;;5.00;2.50;;;;;;;;5021004;28;61780;-74
2022/08/28 05:56:55;;;;;;;;;5.50;3.00;;;;;;;;5022218;28;61931;-75
2022/08/28 05:59:20;;;;;;;;;3.25;3.00;;;;;;;;5024669;28;61779;-75
2022/08/28 06:01:47;;;;;;;;;2.75;2.75;;;;;;;;5025477;28;61743;-74
2022/08/28 06:04:14;;;;;;;;;3.25;2.50;;;;;;;;5025661;28;61928;-74
2022/08/28 06:06:40;;;;;;;;;5.00;4.00;;;;;;;;5024434;28;61856;-75
2022/08/28 06:09:07;;;;;;;;;3.75;2.75;;;;;;;;5025922;28;61787;-74
2022/08/28 06:11:32;;;;;;;;;3.25;2.50;;;;;;;;5024022;28;63905;-74
2022/08/28 06:14:00;;;;;;;;;3.00;3.00;;;;;;;;5024143;28;61888;-74
2022/08/28 06:16:26;;;;;;;;;4.50;3.25;;;;;;;;5025795;28;61925;-75
2022/08/28 06:18:51;;;;;;;;;4.50;4.25;;;;;;;;5025583;28;61790;-75
2022/08/28 06:21:16;;;;;;;;;3.50;3.50;;;;;;;;5024843;28;62271;-74
2022/08/28 06:23:43;;;;;;;;;6.25;3.50;;;;;;;;5024041;28;62101;-75
2022/08/28 06:26:08;;;;;;;;;3.25;3.25;;;;;;;;5025657;28;61944;-75
2022/08/28 06:28:33;;;;;;;;;5.00;3.75;;;;;;;;5023719;28;61845;-75
2022/08/28 06:31:00;;;;;;;;;6.00;3.25;;;;;;;;5025022;28;61931;-75
2022/08/28 06:33:26;;;;;;;;;4.00;4.00;;;;;;;;5023862;28;61833;-75
2022/08/28 06:35:52;;;;;;;;;4.50;3.00;;;;;;;;5023980;28;61921;-75
2022/08/28 06:38:18;;;;;;;;;4.00;3.25;;;;;;;;5024391;28;62620;-75
2022/08/28 06:40:45;;;;;;;;;3.00;2.25;;;;;;;;5023412;28;63521;-75
2022/08/28 06:43:11;;;;;;;;;3.50;3.50;;;;;;;;5025091;28;61901;-74
2022/08/28 06:45:41;;;;;;;;;2.00;2.00;;;;;;;;5025155;28;61937;-75
2022/08/28 06:48:07;;;;;;;;;3.00;1.50;;;;;;;;5023908;28;61732;-75
2022/08/28 06:50:32;;;;;;;;;3.00;3.00;;;;;;;;5024449;28;61837;-75
2022/08/28 06:52:57;;;;;;;;;3.00;3.00;;;;;;;;5024819;28;62023;-75
2022/08/28 06:55:23;;;;;;;;;3.75;2.75;;;;;;;;5023700;28;61971;-75
2022/08/28 06:57:49;;;;;;;;;4.25;2.50;;;;;;;;5023763;28;61838;-75
2022/08/28 07:00:14;;;;;;;;;3.00;3.00;;;;;;;;5024589;28;62024;-75
2022/08/28 07:02:39;;;;;;;;;3.50;2.75;;;;;;;;5024849;28;61767;-75
2022/08/28 07:05:05;;;;;;;;;2.00;2.00;;;;;;;;5025097;28;61746;-75
2022/08/28 07:07:30;;;;;;;;;6.25;3.25;;;;;;;;5023948;28;61985;-75
2022/08/28 07:09:56;;;;;;;;;4.50;3.00;;;;;;;;5021992;28;62821;-75
2022/08/28 07:12:21;;;;;;;;;3.25;2.00;;;;;;;;5024809;28;61925;-75
2022/08/28 07:14:46;;;;;;;;;3.00;2.00;;;;;;;;5024797;28;61989;-76
2022/08/28 07:17:11;;;;;;;;;4.00;3.25;;;;;;;;5025024;28;61877;-75
2022/08/28 07:19:37;;;;;;;;;2.67;2.67;;;;;;;;5022809;28;63509;-75
2022/08/28 07:22:02;;;;;;;;;4.00;4.00;;;;;;;;5024422;28;61949;-75
2022/08/28 07:24:28;;;;;;;;;4.00;4.00;;;;;;;;5024478;28;61738;-75
2022/08/28 07:26:54;;;;;;;;;4.00;4.00;;;;;;;;5024832;28;61780;-75
2022/08/28 07:29:19;;;;;;;;;5.00;2.00;;;;;;;;5021926;28;63595;-75
2022/08/28 07:31:46;;;;;;;;;3.00;3.00;;;;;;;;5023465;28;61976;-75
2022/08/28 07:34:12;;;;;;;;;4.00;2.50;;;;;;;;5024423;28;62080;-75
2022/08/28 07:36:37;;;;;;;;;4.25;3.00;;;;;;;;5023092;28;62166;-74
2022/08/28 07:39:04;;;;;;;;;4.00;3.00;;;;;;;;5023713;28;61867;-74
2022/08/28 07:41:30;;;;;;;;;2.00;2.00;;;;;;;;5024485;28;61724;-75
2022/08/28 07:46:40;;;;;;;;;4.00;3.00;;;;;;;;5024413;28;61995;-75
2022/08/28 07:49:06;;;;;;;;;6.00;5.50;;;;;;;;5023425;28;61991;-75
2022/08/28 07:51:31;;;;;;;;;5.33;2.67;;;;;;;;5024057;28;61865;-75
2022/08/28 07:53:57;;;;;;;;;4.00;3.25;;;;;;;;5024051;28;61672;-75
2022/08/28 07:56:28;;;;;;;;;4.75;2.75;;;;;;;;5023008;28;61862;-75
2022/08/28 07:58:55;;;;;;;;;3.50;3.50;;;;;;;;5021515;28;63740;-75
2022/08/28 08:01:21;;;;;;;;;2.50;2.50;;;;;;;;5022821;28;61868;-75
2022/08/28 08:03:46;;;;;;;;;7.25;4.00;;;;;;;;5024173;28;62061;-75
2022/08/28 08:06:12;;;;;;;;;2.75;2.75;;;;;;;;5024003;28;62147;-75
2022/08/28 08:08:38;;;;;;;;;3.50;3.50;;;;;;;;5023487;28;61831;-75
2022/08/28 08:11:06;;;;;;;;;6.00;3.50;;;;;;;;5024031;28;61996;-75
2022/08/28 08:13:32;;;;;;;;;3.00;3.00;;;;;;;;5023345;28;61886;-75
2022/08/28 08:16:05;;;;;;;;;5.75;5.75;;;;;;;;5023902;28;61671;-75
2022/08/28 08:18:32;;;;;;;;;4.50;4.50;;;;;;;;5022114;28;63745;-75
2022/08/28 08:20:57;;;;;;;;;4.25;2.75;;;;;;;;5030073;28;61774;-75
2022/08/28 08:23:23;;;;;;;;;2.50;2.50;;;;;;;;5023377;28;62072;-76
2022/08/28 08:25:58;;;;;;;;;3.50;3.50;;;;;;;;5022566;28;61854;-75
2022/08/28 08:28:24;;;;;;;;;3.75;2.50;;;;;;;;5021216;28;64827;-75
2022/08/28 08:30:49;;;;;;;;;7.00;3.00;;;;;;;;5023671;28;61728;-75
2022/08/28 08:33:15;;;;;;;;;2.50;2.50;;;;;;;;5023581;28;61771;-74
2022/08/28 08:35:40;;;;;;;;;2.75;2.50;;;;;;;;5023868;28;61782;-75
2022/08/28 08:38:08;;;;;;;;;7.00;5.25;;;;;;;;5022934;28;61817;-75
2022/08/28 08:40:34;;;;;;;;;3.75;3.00;;;;;;;;5022273;28;61778;-75
2022/08/28 08:43:00;;;;;;;;;6.00;3.25;;;;;;;;5023110;28;62000;-75
2022/08/28 08:45:28;;;;;;;;;6.00;4.25;;;;;;;;5022175;28;62212;-75
2022/08/28 08:47:54;;;;;;;;;3.00;3.00;;;;;;;;5021394;28;64022;-75
2022/08/28 08:50:20;;;;;;;;;5.00;5.00;;;;;;;;5021755;28;61999;-75
2022/08/28 08:52:45;;;;;;;;;8.00;3.00;;;;;;;;5023270;28;61965;-75
2022/08/28 08:55:13;;;;;;;;;5.25;3.50;;;;;;;;5023254;28;61868;-75
2022/08/28 08:57:39;;;;;;;;;4.00;4.00;;;;;;;;5022325;28;62003;-75
2022/08/28 09:00:06;;;;;;;;;4.00;3.75;;;;;;;;5023208;28;61972;-75
2022/08/28 09:02:36;;;;;;;;;4.00;3.50;;;;;;;;5021845;28;62002;-75
2022/08/28 09:05:01;;;;;;;;;5.33;4.00;;;;;;;;5023365;28;61811;-75
2022/08/28 09:07:32;;;;;;;;;5.00;4.00;;;;;;;;5022234;28;61926;-75
2022/08/28 09:09:58;;;;;;;;;3.50;2.50;;;;;;;;5021581;28;61803;-76
2022/08/28 09:12:24;;;;;;;;;5.33;3.67;;;;;;;;5021235;28;61774;-75
2022/08/28 09:15:03;;;;;;;;;7.33;5.33;;;;;;;;5021890;28;61754;-75
2022/08/28 09:17:32;;;;;;;;;5.00;5.00;;;;;;;;5022407;28;61776;-75
2022/08/28 09:19:57;;;;;;;;;4.00;4.00;;;;;;;;5021279;28;61827;-75
2022/08/28 09:22:22;;;;;;;;;3.25;3.25;;;;;;;;5021477;28;61752;-75
2022/08/28 09:24:47;;;;;;;;;5.25;4.00;;;;;;;;5021094;28;61890;-75
2022/08/28 09:27:25;;;;;;;;;6.00;5.33;;;;;;;;5021869;28;63013;-76
2022/08/28 09:29:56;;;;;;;;;6.00;6.00;;;;;;;;5021512;28;61968;-75
2022/08/28 09:32:21;;;;;;;;;6.25;5.00;;;;;;;;5022265;28;61677;-75
2022/08/28 09:35:05;;;;;;;;;7.25;4.50;;;;;;;;5021567;28;61935;-75
2022/08/28 09:37:31;;;;;;;;;6.25;6.00;;;;;;;;5022128;28;61871;-75
2022/08/28 09:40:13;;;;;;;;;6.75;5.75;;;;;;;;5022406;28;61675;-75
2022/08/28 09:45:23;;;;;;;;;6.75;4.50;;;;;;;;5022497;28;61855;-75
2022/08/28 09:47:51;;;;;;;;;9.75;7.50;;;;;;;;5022071;28;61838;-75
2022/08/28 09:50:21;;;;;;;;;8.75;5.00;;;;;;;;5022351;28;61861;-75
2022/08/28 09:52:46;;;;;;;;;6.75;6.75;;;;;;;;5022353;28;61946;-75
2022/08/28 09:55:16;;;;;;;;;5.75;5.50;;;;;;;;5022052;28;61855;-75
2022/08/28 09:57:44;;;;;;;;;10.75;7.75;;;;;;;;5020407;28;64113;-75
2022/08/28 10:00:09;;;;;;;;;7.50;4.50;;;;;;;;5022445;28;61760;-75
2022/08/28 10:02:56;;;;;;;;;5.25;4.50;;;;;;;;5022298;28;61847;-74
2022/08/28 10:05:31;;;;;;;;;6.50;6.00;;;;;;;;5022074;28;61817;-75
2022/08/28 10:08:01;;;;;;;;;5.00;5.00;;;;;;;;5020345;28;63708;-75
2022/08/28 10:10:27;;;;;;;;;9.00;6.75;;;;;;;;5022059;28;61823;-75
2022/08/28 10:13:12;;;;;;;;;7.25;7.25;;;;;;;;5020657;28;61761;-75
2022/08/28 10:15:40;;;;;;;;;9.50;6.75;;;;;;;;5022271;28;61941;-75
2022/08/28 10:18:05;;;;;;;;;7.50;6.75;;;;;;;;5021315;28;61876;-75
2022/08/28 10:20:37;;;;;;;;;6.75;6.00;;;;;;;;5020482;28;61746;-75
2022/08/28 10:23:26;;;;;;;;;8.00;5.00;;;;;;;;5020711;28;61882;-75
2022/08/28 10:25:57;;;;;;;;;11.00;6.50;;;;;;;;5020698;28;61837;-75
2022/08/28 10:28:35;;;;;;;;;7.50;6.50;;;;;;;;5019647;28;63641;-75
2022/08/28 10:31:06;;;;;;;;;4.75;4.75;;;;;;;;5022067;28;61773;-75
2022/08/28 10:33:41;;;;;;;;;7.33;5.33;;;;;;;;5021928;28;62024;-75
2022/08/28 10:36:26;;;;;;;;;9.50;6.00;;;;;;;;5020570;28;62073;-75
2022/08/28 10:39:02;;;;;;;;;7.75;6.00;;;;;;;;5020680;28;63173;-75
2022/08/28 10:41:42;;;;;;;;;7.00;7.00;;;;;;;;5021841;28;61858;-75
2022/08/28 10:44:09;;;;;;;;;14.00;7.75;;;;;;;;5021673;28;62035;-75
2022/08/28 10:46:41;;;;;;;;;7.67;6.67;;;;;;;;5025335;28;61927;-75
2022/08/28 10:49:09;;;;;;;;;6.00;5.00;;;;;;;;5024571;28;61878;-75
2022/08/28 10:51:43;;;;;;;;;7.00;5.67;;;;;;;;5025197;28;61778;-75
2022/08/28 10:54:11;;;;;;;;;8.67;6.33;;;;;;;;5023321;28;61842;-75
2022/08/28 10:56:43;;;;;;;;;5.33;5.33;;;;;;;;5023744;28;62283;-75
2022/08/28 10:59:08;;;;;;;;;8.67;7.67;;;;;;;;5024208;28;63118;-75
2022/08/28 11:01:35;;;;;;;;;6.67;5.67;;;;;;;;5023664;28;61783;-75
2022/08/28 11:04:03;;;;;;;;;7.33;7.00;;;;;;;;5023825;28;61774;-76
2022/08/28 11:06:39;;;;;;;;;9.00;5.67;;;;;;;;5023679;28;61759;-75
2022/08/28 11:09:24;;;;;;;;;7.67;4.00;;;;;;;;5024305;28;61985;-75
2022/08/28 11:11:51;;;;;;;;;6.67;6.67;;;;;;;;5023515;28;61865;-75
2022/08/28 11:14:28;;;;;;;;;5.00;5.00;;;;;;;;5023330;28;61897;-75
2022/08/28 11:16:56;;;;;;;;;9.67;7.00;;;;;;;;5023506;28;62060;-75
2022/08/28 11:19:30;;;;;;;;;7.67;6.00;;;;;;;;5023918;28;63079;-76
2022/08/28 11:21:55;;;;;;;;;6.67;5.67;;;;;;;;5024463;28;61712;-75
2022/08/28 11:24:24;;;;;;;;;7.00;6.00;;;;;;;;5023307;28;61984;-75
2022/08/28 11:26:55;;;;;;;;;5.67;5.33;;;;;;;;5023466;28;61874;-75
2022/08/28 11:29:39;;;;;;;;;5.67;4.00;;;;;;;;5022204;28;63373;-75
2022/08/28 11:32:23;;;;;;;;;5.67;4.33;;;;;;;;5024380;28;61748;-75
2022/08/28 11:34:59;;;;;;;;;5.00;4.67;;;;;;;;5024618;28;61723;-75
2022/08/28 11:37:44;;;;;;;;;6.00;4.67;;;;;;;;5023120;28;61743;-75
2022/08/28 11:40:16;;;;;;;;;6.67;3.67;;;;;;;;5022449;28;63894;-74
2022/08/28 11:42:41;;;;;;;;;4.00;4.00;;;;;;;;5024084;28;61931;-75
2022/08/28 11:45:16;;;;;;;;;9.00;7.67;;;;;;;;5024388;28;61981;-75
2022/08/28 11:47:45;;;;;;;;;6.33;5.33;;;;;;;;5024856;28;61870;-75
2022/08/28 11:50:17;;;;;;;;;7.00;4.33;;;;;;;;5023298;28;63082;-75
2022/08/28 11:53:01;;;;;;;;;4.00;4.00;;;;;;;;5022727;28;61898;-75
2022/08/28 11:55:45;;;;;;;;;3.67;3.67;;;;;;;;5024101;28;61898;-75
2022/08/28 11:58:18;;;;;;;;;6.33;5.33;;;;;;;;5024208;28;62120;-75
2022/08/28 12:00:47;;;;;;;;;8.67;6.33;;;;;;;;5022123;28;64918;-75
2022/08/28 12:03:25;;;;;;;;;4.33;4.00;;;;;;;;5022723;28;61750;-75
2022/08/28 12:06:00;;;;;;;;;4.67;4.67;;;;;;;;5022415;28;61933;-75
2022/08/28 12:08:43;;;;;;;;;4.67;4.33;;;;;;;;5024244;28;61830;-75
2022/08/28 12:11:09;;;;;;;;;6.00;4.33;;;;;;;;5021839;28;64754;-75
2022/08/28 12:13:41;;;;;;;;;4.00;4.00;;;;;;;;5022428;28;61747;-75
2022/08/28 12:16:06;;;;;;;;;5.67;4.00;;;;;;;;5023705;28;61777;-75
2022/08/28 12:18:37;;;;;;;;;4.67;4.67;;;;;;;;5024134;28;61965;-75
2022/08/28 12:21:04;;;;;;;;;4.67;4.67;;;;;;;;5021580;28;63576;-75
2022/08/28 12:23:31;;;;;;;;;4.67;4.33;;;;;;;;5022263;28;61747;-75
2022/08/28 12:26:04;;;;;;;;;3.00;3.00;;;;;;;;5023438;28;61890;-75
2022/08/28 12:28:39;;;;;;;;;6.67;4.00;;;;;;;;5023594;28;61725;-75
2022/08/28 12:31:04;;;;;;;;;4.33;4.33;;;;;;;;5021766;28;64652;-75
2022/08/28 12:33:39;;;;;;;;;3.00;3.00;;;;;;;;5023545;28;61696;-75
2022/08/28 12:36:08;;;;;;;;;6.00;4.33;;;;;;;;5023348;28;61740;-75
2022/08/28 12:38:34;;;;;;;;;3.00;3.00;;;;;;;;5022443;28;61918;-75
2022/08/28 12:41:00;;;;;;;;;4.67;3.33;;;;;;;;5021544;28;62833;-75
2022/08/28 12:43:38;;;;;;;;;5.33;5.00;;;;;;;;5023308;28;62108;-75
2022/08/28 12:46:29;;;;;;;;;5.00;4.00;;;;;;;;5021642;28;61785;-75
2022/08/28 12:49:02;;;;;;;;;3.00;3.00;;;;;;;;5021895;28;62030;-76
2022/08/28 12:51:32;;;;;;;;;5.67;4.00;;;;;;;;5022680;28;62751;-75
2022/08/28 12:53:59;;;;;;;;;4.00;4.00;;;;;;;;5021553;28;61958;-75
2022/08/28 12:56:28;;;;;;;;;4.00;4.00;;;;;;;;5023116;28;61898;-75
2022/08/28 12:58:54;;;;;;;;;8.00;6.00;;;;;;;;5021886;28;61807;-75
2022/08/28 13:01:30;;;;;;;;;6.33;5.67;;;;;;;;5022420;28;61789;-75
2022/08/28 13:04:01;;;;;;;;;5.33;5.00;;;;;;;;5022688;28;61958;-76
2022/08/28 13:06:31;;;;;;;;;4.67;4.00;;;;;;;;5022515;28;61942;-75
2022/08/28 13:08:59;;;;;;;;;4.33;4.00;;;;;;;;5023344;28;61945;-75
2022/08/28 13:11:24;;;;;;;;;7.00;5.33;;;;;;;;5020766;28;64148;-75
2022/08/28 13:13:50;;;;;;;;;4.00;4.00;;;;;;;;5021474;28;61771;-76
2022/08/28 13:16:35;;;;;;;;;4.00;3.00;;;;;;;;5021622;28;61849;-75
2022/08/28 13:19:03;;;;;;;;;5.00;5.00;;;;;;;;5023190;28;61853;-75
2022/08/28 13:21:30;;;;;;;;;6.00;4.00;;;;;;;;5021985;28;62858;-75
2022/08/28 13:23:57;;;;;;;;;3.67;3.67;;;;;;;;5021139;28;61789;-75
2022/08/28 13:26:33;;;;;;;;;4.00;4.00;;;;;;;;5021329;28;61748;-76
2022/08/28 13:29:01;;;;;;;;;3.33;3.33;;;;;;;;5021454;28;61975;-75
2022/08/28 13:31:31;;;;;;;;;3.00;3.00;;;;;;;;5022093;28;61832;-76
2022/08/28 13:34:08;;;;;;;;;4.00;3.67;;;;;;;;5021100;28;61912;-76
2022/08/28 13:36:39;;;;;;;;;3.00;3.00;;;;;;;;5021363;28;61874;-76
2022/08/28 13:39:05;;;;;;;;;6.00;5.00;;;;;;;;5022982;28;61692;-76
2022/08/28 13:41:30;;;;;;;;;5.00;5.00;;;;;;;;5020300;28;63588;-76
2022/08/28 13:43:56;;;;;;;;;5.33;2.67;;;;;;;;5022474;28;61937;-75
2022/08/28 13:46:21;;;;;;;;;5.67;4.00;;;;;;;;5022309;28;61759;-75
2022/08/28 13:48:46;;;;;;;;;4.33;3.00;;;;;;;;5021316;28;62116;-75
2022/08/28 13:51:12;;;;;;;;;5.33;3.00;;;;;;;;5022086;28;62940;-75
2022/08/28 13:53:37;;;;;;;;;4.00;3.00;;;;;;;;5022099;28;61774;-75
2022/08/28 13:56:03;;;;;;;;;3.00;3.00;;;;;;;;5022266;28;61975;-75
2022/08/28 13:58:29;;;;;;;;;5.00;4.00;;;;;;;;5022462;28;61797;-75
2022/08/28 14:00:54;;;;;;;;;5.67;4.67;;;;;;;;5021666;28;62035;-75
2022/08/28 14:03:36;;;;;;;;;4.33;4.00;;;;;;;;5020849;28;61935;-75
2022/08/28 14:06:09;;;;;;;;;3.00;3.00;;;;;;;;5020858;28;61794;-75
2022/08/28 14:08:35;;;;;;;;;6.00;4.00;;;;;;;;5020898;28;61953;-75
2022/08/28 14:11:00;;;;;;;;;3.67;3.67;;;;;;;;5020363;28;63456;-75
2022/08/28 14:13:26;;;;;;;;;6.00;3.67;;;;;;;;5020338;28;62633;-75
2022/08/28 14:15:52;;;;;;;;;3.00;3.00;;;;;;;;5022254;28;61777;-75
2022/08/28 14:18:18;;;;;;;;;2.67;2.00;;;;;;;;5022580;28;61806;-75
2022/08/28 14:20:43;;;;;;;;;5.67;3.00;;;;;;;;5024792;28;63164;-75
2022/08/28 14:23:09;;;;;;;;;4.33;3.00;;;;;;;;5025548;28;61779;-75
2022/08/28 14:25:34;;;;;;;;;3.67;2.33;;;;;;;;5023981;28;61889;-76
2022/08/28 14:27:59;;;;;;;;;3.00;3.00;;;;;;;;5025582;28;61688;-76
2022/08/28 14:30:25;;;;;;;;;4.00;3.67;;;;;;;;5024793;28;62127;-76
2022/08/28 14:32:50;;;;;;;;;3.33;3.00;;;;;;;;5025633;28;61724;-76
2022/08/28 14:35:15;;;;;;;;;5.00;3.00;;;;;;;;5025419;28;61668;-76
2022/08/28 14:37:41;;;;;;;;;3.67;3.67;;;;;;;;5025854;28;61694;-76
2022/08/28 14:40:06;;;;;;;;;4.67;2.67;;;;;;;;5023573;28;63832;-76
2022/08/28 14:42:31;;;;;;;;;2.67;2.67;;;;;;;;5025070;28;61688;-77
2022/08/28 14:44:57;;;;;;;;;3.67;2.00;;;;;;;;5025211;28;61860;-76
2022/08/28 14:47:23;;;;;;;;;2.33;2.33;;;;;;;;5024098;28;61853;-76
2022/08/28 14:49:49;;;;;;;;;2.00;2.00;;;;;;;;5024711;28;61869;-76
2022/08/28 14:52:14;;;;;;;;;3.00;3.00;;;;;;;;5025136;28;61827;-76